aviador You're here:

KCCA Decoded Metar

in _UNIDENTIFIED
Report Time2018-02-22 06:35:00
UTC Time2018-02-22 06:40:08
Flight Rules mvfr MVFR
WindCalm
Visibility9999 m
Phenomena:N/A
Clouds:Overcast 012 Hf
Expected CloudBase > 400 ft AGL from Temp-Dew spread
Ceiling1,200 ft
Temp03°C (ISA -11)
Dew Point02°C (93% RH)
AAT1.3°C
QNH1024 hPa
Density Alt-1,093 ft
Elevation515 ft
Report Wrong Elevation
Raw Report
KCCA 220635Z AUTO 00000KT 10SM OVC012 03/02 A3025 RMK AO2=

Extra information for KCCA:More info

Metar Taf Metar & Taf Last 4 Metars F.Rules Stats Wind Profile Meteogram Temp Stats Metar ALERT Operation Metar Decoded Social comments